<?xml version="1.0" encoding="UTF-8" standalone="no" ?>
<gpx xmlns="http://www.topografix.com/GPX/1/1" xmlns:xsi="http://www.w3.org/2001/XMLSchema-instance" xsi:schemaLocation="http://www.topografix.com/GPX/1/1 http://www.topografix.com/GPX/1/1/gpx.xsd" version="1.1" creator="VisuGPX - https://www.visugpx.com">
  <metadata>
    <name>les fontaines de Moncaup</name>
    <desc><![CDATA[Découverte du village de Montaut et de ses fontaines.]]></desc>
  </metadata>
  <trk>
    <name><![CDATA[ACTIVE LOG]]></name>
    <trkseg>
      <trkpt lat="43.48509" lon="-0.05901">
        <ele>256</ele>
        <time>2016-04-28T12:56:44Z</time>
      </trkpt>
      <trkpt lat="43.4851" lon="-0.059">
        <ele>257</ele>
        <time>2016-04-28T12:57:18Z</time>
      </trkpt>
      <trkpt lat="43.48509" lon="-0.05904">
        <ele>255</ele>
        <time>2016-04-28T12:57:54Z</time>
      </trkpt>
      <trkpt lat="43.485" lon="-0.0591">
        <ele>255</ele>
        <time>2016-04-28T12:58:09Z</time>
      </trkpt>
      <trkpt lat="43.48498" lon="-0.05916">
        <ele>255</ele>
        <time>2016-04-28T12:58:24Z</time>
      </trkpt>
      <trkpt lat="43.48497" lon="-0.05918">
        <ele>254</ele>
        <time>2016-04-28T12:58:26Z</time>
      </trkpt>
      <trkpt lat="43.48493" lon="-0.05929">
        <ele>254</ele>
        <time>2016-04-28T12:58:36Z</time>
      </trkpt>
      <trkpt lat="43.48486" lon="-0.05936">
        <ele>253</ele>
        <time>2016-04-28T12:58:44Z</time>
      </trkpt>
      <trkpt lat="43.4849" lon="-0.05952">
        <ele>252</ele>
        <time>2016-04-28T12:58:58Z</time>
      </trkpt>
      <trkpt lat="43.48494" lon="-0.05956">
        <ele>252</ele>
        <time>2016-04-28T12:59:11Z</time>
      </trkpt>
      <trkpt lat="43.48498" lon="-0.05966">
        <ele>252</ele>
        <time>2016-04-28T12:59:24Z</time>
      </trkpt>
      <trkpt lat="43.48512" lon="-0.05991">
        <ele>251</ele>
        <time>2016-04-28T12:59:43Z</time>
      </trkpt>
      <trkpt lat="43.48536" lon="-0.06027">
        <ele>248</ele>
        <time>2016-04-28T13:00:10Z</time>
      </trkpt>
      <trkpt lat="43.48552" lon="-0.06055">
        <ele>245</ele>
        <time>2016-04-28T13:00:31Z</time>
      </trkpt>
      <trkpt lat="43.48563" lon="-0.06073">
        <ele>244</ele>
        <time>2016-04-28T13:00:44Z</time>
      </trkpt>
      <trkpt lat="43.48571" lon="-0.06088">
        <ele>242</ele>
        <time>2016-04-28T13:00:57Z</time>
      </trkpt>
      <trkpt lat="43.48586" lon="-0.06123">
        <ele>239</ele>
        <time>2016-04-28T13:01:20Z</time>
      </trkpt>
      <trkpt lat="43.48588" lon="-0.06135">
        <ele>239</ele>
        <time>2016-04-28T13:01:28Z</time>
      </trkpt>
      <trkpt lat="43.48591" lon="-0.06142">
        <ele>238</ele>
        <time>2016-04-28T13:01:33Z</time>
      </trkpt>
      <trkpt lat="43.48596" lon="-0.0615">
        <ele>238</ele>
        <time>2016-04-28T13:01:40Z</time>
      </trkpt>
      <trkpt lat="43.48603" lon="-0.06174">
        <ele>233</ele>
        <time>2016-04-28T13:01:58Z</time>
      </trkpt>
      <trkpt lat="43.48612" lon="-0.06203">
        <ele>229</ele>
        <time>2016-04-28T13:02:21Z</time>
      </trkpt>
      <trkpt lat="43.48623" lon="-0.06239">
        <ele>226</ele>
        <time>2016-04-28T13:02:47Z</time>
      </trkpt>
      <trkpt lat="43.4863" lon="-0.0626">
        <ele>223</ele>
        <time>2016-04-28T13:03:02Z</time>
      </trkpt>
      <trkpt lat="43.48636" lon="-0.06273">
        <ele>222</ele>
        <time>2016-04-28T13:03:13Z</time>
      </trkpt>
      <trkpt lat="43.48639" lon="-0.06275">
        <ele>221</ele>
        <time>2016-04-28T13:03:33Z</time>
      </trkpt>
      <trkpt lat="43.48639" lon="-0.06275">
        <ele>221</ele>
        <time>2016-04-28T13:03:35Z</time>
      </trkpt>
      <trkpt lat="43.48639" lon="-0.06283">
        <ele>220</ele>
        <time>2016-04-28T13:03:40Z</time>
      </trkpt>
      <trkpt lat="43.48642" lon="-0.06295">
        <ele>218</ele>
        <time>2016-04-28T13:03:56Z</time>
      </trkpt>
      <trkpt lat="43.48649" lon="-0.0632">
        <ele>216</ele>
        <time>2016-04-28T13:04:12Z</time>
      </trkpt>
      <trkpt lat="43.4865" lon="-0.06322">
        <ele>216</ele>
        <time>2016-04-28T13:04:13Z</time>
      </trkpt>
      <trkpt lat="43.48658" lon="-0.06354">
        <ele>214</ele>
        <time>2016-04-28T13:04:35Z</time>
      </trkpt>
      <trkpt lat="43.48665" lon="-0.06372">
        <ele>210</ele>
        <time>2016-04-28T13:04:50Z</time>
      </trkpt>
      <trkpt lat="43.48677" lon="-0.06404">
        <ele>207</ele>
        <time>2016-04-28T13:05:08Z</time>
      </trkpt>
      <trkpt lat="43.48676" lon="-0.06405">
        <ele>207</ele>
        <time>2016-04-28T13:05:19Z</time>
      </trkpt>
      <trkpt lat="43.48685" lon="-0.06431">
        <ele>205</ele>
        <time>2016-04-28T13:05:34Z</time>
      </trkpt>
      <trkpt lat="43.48685" lon="-0.0643">
        <ele>205</ele>
        <time>2016-04-28T13:05:44Z</time>
      </trkpt>
      <trkpt lat="43.48685" lon="-0.06432">
        <ele>205</ele>
        <time>2016-04-28T13:05:45Z</time>
      </trkpt>
      <trkpt lat="43.48687" lon="-0.0644">
        <ele>204</ele>
        <time>2016-04-28T13:05:48Z</time>
      </trkpt>
      <trkpt lat="43.48693" lon="-0.06443">
        <ele>204</ele>
        <time>2016-04-28T13:05:54Z</time>
      </trkpt>
      <trkpt lat="43.48695" lon="-0.06445">
        <ele>204</ele>
        <time>2016-04-28T13:05:56Z</time>
      </trkpt>
      <trkpt lat="43.48724" lon="-0.06459">
        <ele>205</ele>
        <time>2016-04-28T13:06:18Z</time>
      </trkpt>
      <trkpt lat="43.48742" lon="-0.06462">
        <ele>210</ele>
        <time>2016-04-28T13:06:34Z</time>
      </trkpt>
      <trkpt lat="43.48744" lon="-0.06452">
        <ele>212</ele>
        <time>2016-04-28T13:06:52Z</time>
      </trkpt>
      <trkpt lat="43.48728" lon="-0.06428">
        <ele>210</ele>
        <time>2016-04-28T13:07:08Z</time>
      </trkpt>
      <trkpt lat="43.48721" lon="-0.06408">
        <ele>205</ele>
        <time>2016-04-28T13:07:31Z</time>
      </trkpt>
      <trkpt lat="43.48717" lon="-0.064">
        <ele>204</ele>
        <time>2016-04-28T13:07:51Z</time>
      </trkpt>
      <trkpt lat="43.48719" lon="-0.06405">
        <ele>204</ele>
        <time>2016-04-28T13:07:54Z</time>
      </trkpt>
      <trkpt lat="43.48721" lon="-0.06415">
        <ele>202</ele>
        <time>2016-04-28T13:08:08Z</time>
      </trkpt>
      <trkpt lat="43.48725" lon="-0.0643">
        <ele>205</ele>
        <time>2016-04-28T13:08:37Z</time>
      </trkpt>
      <trkpt lat="43.48733" lon="-0.06446">
        <ele>207</ele>
        <time>2016-04-28T13:08:57Z</time>
      </trkpt>
      <trkpt lat="43.48737" lon="-0.06452">
        <ele>210</ele>
        <time>2016-04-28T13:09:10Z</time>
      </trkpt>
      <trkpt lat="43.48738" lon="-0.06456">
        <ele>211</ele>
        <time>2016-04-28T13:09:31Z</time>
      </trkpt>
      <trkpt lat="43.48741" lon="-0.06464">
        <ele>211</ele>
        <time>2016-04-28T13:09:42Z</time>
      </trkpt>
      <trkpt lat="43.48742" lon="-0.06466">
        <ele>211</ele>
        <time>2016-04-28T13:09:43Z</time>
      </trkpt>
      <trkpt lat="43.48766" lon="-0.06484">
        <ele>208</ele>
        <time>2016-04-28T13:10:05Z</time>
      </trkpt>
      <trkpt lat="43.4878" lon="-0.065">
        <ele>208</ele>
        <time>2016-04-28T13:10:20Z</time>
      </trkpt>
      <trkpt lat="43.48782" lon="-0.065">
        <ele>208</ele>
        <time>2016-04-28T13:10:22Z</time>
      </trkpt>
      <trkpt lat="43.48791" lon="-0.06539">
        <ele>207</ele>
        <time>2016-04-28T13:10:45Z</time>
      </trkpt>
      <trkpt lat="43.48799" lon="-0.06571">
        <ele>209</ele>
        <time>2016-04-28T13:11:08Z</time>
      </trkpt>
      <trkpt lat="43.48806" lon="-0.06603">
        <ele>210</ele>
        <time>2016-04-28T13:11:30Z</time>
      </trkpt>
      <trkpt lat="43.4881" lon="-0.06623">
        <ele>209</ele>
        <time>2016-04-28T13:11:46Z</time>
      </trkpt>
      <trkpt lat="43.48817" lon="-0.06653">
        <ele>208</ele>
        <time>2016-04-28T13:12:06Z</time>
      </trkpt>
      <trkpt lat="43.48823" lon="-0.0669">
        <ele>211</ele>
        <time>2016-04-28T13:12:29Z</time>
      </trkpt>
      <trkpt lat="43.48824" lon="-0.06698">
        <ele>211</ele>
        <time>2016-04-28T13:12:35Z</time>
      </trkpt>
      <trkpt lat="43.48826" lon="-0.06715">
        <ele>210</ele>
        <time>2016-04-28T13:12:48Z</time>
      </trkpt>
      <trkpt lat="43.48827" lon="-0.06747">
        <ele>212</ele>
        <time>2016-04-28T13:13:09Z</time>
      </trkpt>
      <trkpt lat="43.48825" lon="-0.06779">
        <ele>212</ele>
        <time>2016-04-28T13:13:30Z</time>
      </trkpt>
      <trkpt lat="43.48826" lon="-0.06801">
        <ele>212</ele>
        <time>2016-04-28T13:13:46Z</time>
      </trkpt>
      <trkpt lat="43.48827" lon="-0.06825">
        <ele>211</ele>
        <time>2016-04-28T13:14:03Z</time>
      </trkpt>
      <trkpt lat="43.48824" lon="-0.06845">
        <ele>212</ele>
        <time>2016-04-28T13:14:18Z</time>
      </trkpt>
      <trkpt lat="43.48824" lon="-0.06852">
        <ele>211</ele>
        <time>2016-04-28T13:14:23Z</time>
      </trkpt>
      <trkpt lat="43.48826" lon="-0.06862">
        <ele>211</ele>
        <time>2016-04-28T13:14:30Z</time>
      </trkpt>
      <trkpt lat="43.48823" lon="-0.06889">
        <ele>214</ele>
        <time>2016-04-28T13:14:47Z</time>
      </trkpt>
      <trkpt lat="43.48821" lon="-0.06892">
        <ele>214</ele>
        <time>2016-04-28T13:14:49Z</time>
      </trkpt>
      <trkpt lat="43.4882" lon="-0.06894">
        <ele>215</ele>
        <time>2016-04-28T13:15:03Z</time>
      </trkpt>
      <trkpt lat="43.48822" lon="-0.06899">
        <ele>216</ele>
        <time>2016-04-28T13:15:17Z</time>
      </trkpt>
      <trkpt lat="43.48819" lon="-0.06903">
        <ele>217</ele>
        <time>2016-04-28T13:15:36Z</time>
      </trkpt>
      <trkpt lat="43.4882" lon="-0.06905">
        <ele>218</ele>
        <time>2016-04-28T13:15:59Z</time>
      </trkpt>
      <trkpt lat="43.48824" lon="-0.06908">
        <ele>218</ele>
        <time>2016-04-28T13:16:14Z</time>
      </trkpt>
      <trkpt lat="43.48826" lon="-0.06917">
        <ele>219</ele>
        <time>2016-04-28T13:16:37Z</time>
      </trkpt>
      <trkpt lat="43.48826" lon="-0.06918">
        <ele>219</ele>
        <time>2016-04-28T13:16:43Z</time>
      </trkpt>
      <trkpt lat="43.48835" lon="-0.06951">
        <ele>221</ele>
        <time>2016-04-28T13:17:05Z</time>
      </trkpt>
      <trkpt lat="43.48835" lon="-0.06953">
        <ele>221</ele>
        <time>2016-04-28T13:17:29Z</time>
      </trkpt>
      <trkpt lat="43.48837" lon="-0.06968">
        <ele>220</ele>
        <time>2016-04-28T13:17:42Z</time>
      </trkpt>
      <trkpt lat="43.4884" lon="-0.06973">
        <ele>219</ele>
        <time>2016-04-28T13:17:46Z</time>
      </trkpt>
      <trkpt lat="43.48845" lon="-0.06998">
        <ele>222</ele>
        <time>2016-04-28T13:18:01Z</time>
      </trkpt>
      <trkpt lat="43.48849" lon="-0.07013">
        <ele>222</ele>
        <time>2016-04-28T13:18:11Z</time>
      </trkpt>
      <trkpt lat="43.48852" lon="-0.07028">
        <ele>227</ele>
        <time>2016-04-28T13:18:23Z</time>
      </trkpt>
      <trkpt lat="43.48853" lon="-0.07035">
        <ele>227</ele>
        <time>2016-04-28T13:18:28Z</time>
      </trkpt>
      <trkpt lat="43.48857" lon="-0.07066">
        <ele>228</ele>
        <time>2016-04-28T13:18:47Z</time>
      </trkpt>
      <trkpt lat="43.48863" lon="-0.0709">
        <ele>229</ele>
        <time>2016-04-28T13:19:05Z</time>
      </trkpt>
      <trkpt lat="43.48865" lon="-0.07101">
        <ele>229</ele>
        <time>2016-04-28T13:19:18Z</time>
      </trkpt>
      <trkpt lat="43.48868" lon="-0.071">
        <ele>229</ele>
        <time>2016-04-28T13:19:31Z</time>
      </trkpt>
      <trkpt lat="43.48871" lon="-0.07102">
        <ele>229</ele>
        <time>2016-04-28T13:19:34Z</time>
      </trkpt>
      <trkpt lat="43.48874" lon="-0.07108">
        <ele>229</ele>
        <time>2016-04-28T13:19:38Z</time>
      </trkpt>
      <trkpt lat="43.48876" lon="-0.07114">
        <ele>228</ele>
        <time>2016-04-28T13:19:41Z</time>
      </trkpt>
      <trkpt lat="43.48887" lon="-0.07134">
        <ele>229</ele>
        <time>2016-04-28T13:19:56Z</time>
      </trkpt>
      <trkpt lat="43.48894" lon="-0.07146">
        <ele>232</ele>
        <time>2016-04-28T13:20:05Z</time>
      </trkpt>
      <trkpt lat="43.48898" lon="-0.07151">
        <ele>233</ele>
        <time>2016-04-28T13:20:10Z</time>
      </trkpt>
      <trkpt lat="43.48905" lon="-0.07174">
        <ele>232</ele>
        <time>2016-04-28T13:20:31Z</time>
      </trkpt>
      <trkpt lat="43.48905" lon="-0.07185">
        <ele>233</ele>
        <time>2016-04-28T13:20:46Z</time>
      </trkpt>
      <trkpt lat="43.48904" lon="-0.07183">
        <ele>233</ele>
        <time>2016-04-28T13:21:06Z</time>
      </trkpt>
      <trkpt lat="43.4889" lon="-0.07183">
        <ele>233</ele>
        <time>2016-04-28T13:21:47Z</time>
      </trkpt>
      <trkpt lat="43.48882" lon="-0.07184">
        <ele>231</ele>
        <time>2016-04-28T13:22:06Z</time>
      </trkpt>
      <trkpt lat="43.48879" lon="-0.07186">
        <ele>231</ele>
        <time>2016-04-28T13:22:10Z</time>
      </trkpt>
      <trkpt lat="43.4886" lon="-0.07188">
        <ele>231</ele>
        <time>2016-04-28T13:22:27Z</time>
      </trkpt>
      <trkpt lat="43.48852" lon="-0.07193">
        <ele>236</ele>
        <time>2016-04-28T13:22:44Z</time>
      </trkpt>
      <trkpt lat="43.4883" lon="-0.0719">
        <ele>239</ele>
        <time>2016-04-28T13:23:03Z</time>
      </trkpt>
      <trkpt lat="43.48821" lon="-0.07188">
        <ele>240</ele>
        <time>2016-04-28T13:23:11Z</time>
      </trkpt>
      <trkpt lat="43.48793" lon="-0.07181">
        <ele>243</ele>
        <time>2016-04-28T13:23:34Z</time>
      </trkpt>
      <trkpt lat="43.48781" lon="-0.0718">
        <ele>245</ele>
        <time>2016-04-28T13:23:51Z</time>
      </trkpt>
      <trkpt lat="43.48767" lon="-0.07176">
        <ele>247</ele>
        <time>2016-04-28T13:24:02Z</time>
      </trkpt>
      <trkpt lat="43.48761" lon="-0.07175">
        <ele>247</ele>
        <time>2016-04-28T13:24:08Z</time>
      </trkpt>
      <trkpt lat="43.4875" lon="-0.07173">
        <ele>246</ele>
        <time>2016-04-28T13:24:23Z</time>
      </trkpt>
      <trkpt lat="43.48727" lon="-0.0716">
        <ele>250</ele>
        <time>2016-04-28T13:24:46Z</time>
      </trkpt>
      <trkpt lat="43.48709" lon="-0.07151">
        <ele>252</ele>
        <time>2016-04-28T13:25:05Z</time>
      </trkpt>
      <trkpt lat="43.48676" lon="-0.07131">
        <ele>255</ele>
        <time>2016-04-28T13:25:35Z</time>
      </trkpt>
      <trkpt lat="43.48657" lon="-0.07129">
        <ele>253</ele>
        <time>2016-04-28T13:25:53Z</time>
      </trkpt>
      <trkpt lat="43.48636" lon="-0.07128">
        <ele>252</ele>
        <time>2016-04-28T13:26:11Z</time>
      </trkpt>
      <trkpt lat="43.48604" lon="-0.07135">
        <ele>251</ele>
        <time>2016-04-28T13:26:39Z</time>
      </trkpt>
      <trkpt lat="43.48582" lon="-0.07139">
        <ele>251</ele>
        <time>2016-04-28T13:26:58Z</time>
      </trkpt>
      <trkpt lat="43.4858" lon="-0.07139">
        <ele>251</ele>
        <time>2016-04-28T13:27:00Z</time>
      </trkpt>
      <trkpt lat="43.48564" lon="-0.07143">
        <ele>252</ele>
        <time>2016-04-28T13:27:17Z</time>
      </trkpt>
      <trkpt lat="43.48556" lon="-0.07142">
        <ele>252</ele>
        <time>2016-04-28T13:27:48Z</time>
      </trkpt>
      <trkpt lat="43.48511" lon="-0.07154">
        <ele>252</ele>
        <time>2016-04-28T13:28:25Z</time>
      </trkpt>
      <trkpt lat="43.48488" lon="-0.07164">
        <ele>251</ele>
        <time>2016-04-28T13:28:45Z</time>
      </trkpt>
      <trkpt lat="43.48461" lon="-0.07173">
        <ele>250</ele>
        <time>2016-04-28T13:29:07Z</time>
      </trkpt>
      <trkpt lat="43.48432" lon="-0.07178">
        <ele>248</ele>
        <time>2016-04-28T13:29:31Z</time>
      </trkpt>
      <trkpt lat="43.48405" lon="-0.07179">
        <ele>249</ele>
        <time>2016-04-28T13:29:54Z</time>
      </trkpt>
      <trkpt lat="43.48381" lon="-0.07175">
        <ele>251</ele>
        <time>2016-04-28T13:30:14Z</time>
      </trkpt>
      <trkpt lat="43.48365" lon="-0.07173">
        <ele>252</ele>
        <time>2016-04-28T13:30:29Z</time>
      </trkpt>
      <trkpt lat="43.48341" lon="-0.0717">
        <ele>249</ele>
        <time>2016-04-28T13:30:51Z</time>
      </trkpt>
      <trkpt lat="43.48322" lon="-0.07164">
        <ele>252</ele>
        <time>2016-04-28T13:31:09Z</time>
      </trkpt>
      <trkpt lat="43.48308" lon="-0.07157">
        <ele>255</ele>
        <time>2016-04-28T13:31:25Z</time>
      </trkpt>
      <trkpt lat="43.48301" lon="-0.07154">
        <ele>256</ele>
        <time>2016-04-28T13:31:37Z</time>
      </trkpt>
      <trkpt lat="43.4829" lon="-0.07151">
        <ele>256</ele>
        <time>2016-04-28T13:31:49Z</time>
      </trkpt>
      <trkpt lat="43.4828" lon="-0.07145">
        <ele>256</ele>
        <time>2016-04-28T13:31:58Z</time>
      </trkpt>
      <trkpt lat="43.4826" lon="-0.07137">
        <ele>259</ele>
        <time>2016-04-28T13:32:14Z</time>
      </trkpt>
      <trkpt lat="43.48252" lon="-0.07134">
        <ele>258</ele>
        <time>2016-04-28T13:32:21Z</time>
      </trkpt>
      <trkpt lat="43.4825" lon="-0.07134">
        <ele>258</ele>
        <time>2016-04-28T13:32:23Z</time>
      </trkpt>
      <trkpt lat="43.4823" lon="-0.07125">
        <ele>256</ele>
        <time>2016-04-28T13:32:40Z</time>
      </trkpt>
      <trkpt lat="43.48213" lon="-0.07122">
        <ele>253</ele>
        <time>2016-04-28T13:32:57Z</time>
      </trkpt>
      <trkpt lat="43.48195" lon="-0.07113">
        <ele>253</ele>
        <time>2016-04-28T13:33:14Z</time>
      </trkpt>
      <trkpt lat="43.48182" lon="-0.07106">
        <ele>252</ele>
        <time>2016-04-28T13:33:26Z</time>
      </trkpt>
      <trkpt lat="43.48161" lon="-0.07095">
        <ele>252</ele>
        <time>2016-04-28T13:33:46Z</time>
      </trkpt>
      <trkpt lat="43.4816" lon="-0.07094">
        <ele>251</ele>
        <time>2016-04-28T13:33:49Z</time>
      </trkpt>
      <trkpt lat="43.48143" lon="-0.07086">
        <ele>250</ele>
        <time>2016-04-28T13:34:07Z</time>
      </trkpt>
      <trkpt lat="43.48134" lon="-0.0708">
        <ele>250</ele>
        <time>2016-04-28T13:34:16Z</time>
      </trkpt>
      <trkpt lat="43.48125" lon="-0.07079">
        <ele>249</ele>
        <time>2016-04-28T13:34:31Z</time>
      </trkpt>
      <trkpt lat="43.48124" lon="-0.07077">
        <ele>249</ele>
        <time>2016-04-28T13:34:34Z</time>
      </trkpt>
      <trkpt lat="43.48122" lon="-0.07074">
        <ele>249</ele>
        <time>2016-04-28T13:34:37Z</time>
      </trkpt>
      <trkpt lat="43.48108" lon="-0.0706">
        <ele>249</ele>
        <time>2016-04-28T13:34:51Z</time>
      </trkpt>
      <trkpt lat="43.48097" lon="-0.07043">
        <ele>249</ele>
        <time>2016-04-28T13:35:06Z</time>
      </trkpt>
      <trkpt lat="43.4808" lon="-0.0702">
        <ele>248</ele>
        <time>2016-04-28T13:35:28Z</time>
      </trkpt>
      <trkpt lat="43.48062" lon="-0.06991">
        <ele>248</ele>
        <time>2016-04-28T13:35:51Z</time>
      </trkpt>
      <trkpt lat="43.48046" lon="-0.06963">
        <ele>248</ele>
        <time>2016-04-28T13:36:15Z</time>
      </trkpt>
      <trkpt lat="43.4804" lon="-0.06951">
        <ele>248</ele>
        <time>2016-04-28T13:36:36Z</time>
      </trkpt>
      <trkpt lat="43.48034" lon="-0.06942">
        <ele>249</ele>
        <time>2016-04-28T13:36:47Z</time>
      </trkpt>
      <trkpt lat="43.48028" lon="-0.06931">
        <ele>249</ele>
        <time>2016-04-28T13:36:55Z</time>
      </trkpt>
      <trkpt lat="43.48008" lon="-0.069">
        <ele>249</ele>
        <time>2016-04-28T13:37:18Z</time>
      </trkpt>
      <trkpt lat="43.47987" lon="-0.0688">
        <ele>251</ele>
        <time>2016-04-28T13:37:38Z</time>
      </trkpt>
      <trkpt lat="43.47963" lon="-0.06861">
        <ele>252</ele>
        <time>2016-04-28T13:37:58Z</time>
      </trkpt>
      <trkpt lat="43.47961" lon="-0.0686">
        <ele>252</ele>
        <time>2016-04-28T13:38:00Z</time>
      </trkpt>
      <trkpt lat="43.47958" lon="-0.06857">
        <ele>252</ele>
        <time>2016-04-28T13:38:05Z</time>
      </trkpt>
      <trkpt lat="43.47954" lon="-0.06851">
        <ele>251</ele>
        <time>2016-04-28T13:38:10Z</time>
      </trkpt>
      <trkpt lat="43.47943" lon="-0.0684">
        <ele>251</ele>
        <time>2016-04-28T13:38:24Z</time>
      </trkpt>
      <trkpt lat="43.47926" lon="-0.06819">
        <ele>252</ele>
        <time>2016-04-28T13:38:43Z</time>
      </trkpt>
      <trkpt lat="43.47916" lon="-0.06809">
        <ele>252</ele>
        <time>2016-04-28T13:38:56Z</time>
      </trkpt>
      <trkpt lat="43.47905" lon="-0.06794">
        <ele>254</ele>
        <time>2016-04-28T13:39:10Z</time>
      </trkpt>
      <trkpt lat="43.47889" lon="-0.0677">
        <ele>255</ele>
        <time>2016-04-28T13:39:32Z</time>
      </trkpt>
      <trkpt lat="43.4787" lon="-0.06743">
        <ele>257</ele>
        <time>2016-04-28T13:39:58Z</time>
      </trkpt>
      <trkpt lat="43.47865" lon="-0.06734">
        <ele>257</ele>
        <time>2016-04-28T13:40:15Z</time>
      </trkpt>
      <trkpt lat="43.47863" lon="-0.06731">
        <ele>257</ele>
        <time>2016-04-28T13:40:26Z</time>
      </trkpt>
      <trkpt lat="43.47853" lon="-0.06714">
        <ele>257</ele>
        <time>2016-04-28T13:40:44Z</time>
      </trkpt>
      <trkpt lat="43.47851" lon="-0.06714">
        <ele>257</ele>
        <time>2016-04-28T13:41:02Z</time>
      </trkpt>
      <trkpt lat="43.47845" lon="-0.06706">
        <ele>258</ele>
        <time>2016-04-28T13:41:19Z</time>
      </trkpt>
      <trkpt lat="43.47839" lon="-0.06696">
        <ele>258</ele>
        <time>2016-04-28T13:41:31Z</time>
      </trkpt>
      <trkpt lat="43.47833" lon="-0.06685">
        <ele>259</ele>
        <time>2016-04-28T13:41:41Z</time>
      </trkpt>
      <trkpt lat="43.47824" lon="-0.06664">
        <ele>261</ele>
        <time>2016-04-28T13:41:56Z</time>
      </trkpt>
      <trkpt lat="43.47817" lon="-0.06647">
        <ele>263</ele>
        <time>2016-04-28T13:42:10Z</time>
      </trkpt>
      <trkpt lat="43.47811" lon="-0.06624">
        <ele>265</ele>
        <time>2016-04-28T13:42:26Z</time>
      </trkpt>
      <trkpt lat="43.47807" lon="-0.06614">
        <ele>266</ele>
        <time>2016-04-28T13:42:37Z</time>
      </trkpt>
      <trkpt lat="43.47804" lon="-0.06602">
        <ele>264</ele>
        <time>2016-04-28T13:42:48Z</time>
      </trkpt>
      <trkpt lat="43.47797" lon="-0.06577">
        <ele>264</ele>
        <time>2016-04-28T13:43:08Z</time>
      </trkpt>
      <trkpt lat="43.47795" lon="-0.06569">
        <ele>264</ele>
        <time>2016-04-28T13:43:14Z</time>
      </trkpt>
      <trkpt lat="43.47789" lon="-0.06559">
        <ele>263</ele>
        <time>2016-04-28T13:43:27Z</time>
      </trkpt>
      <trkpt lat="43.47788" lon="-0.06559">
        <ele>263</ele>
        <time>2016-04-28T13:43:30Z</time>
      </trkpt>
      <trkpt lat="43.47778" lon="-0.06537">
        <ele>263</ele>
        <time>2016-04-28T13:43:50Z</time>
      </trkpt>
      <trkpt lat="43.47767" lon="-0.06512">
        <ele>264</ele>
        <time>2016-04-28T13:44:08Z</time>
      </trkpt>
      <trkpt lat="43.47751" lon="-0.06475">
        <ele>269</ele>
        <time>2016-04-28T13:44:35Z</time>
      </trkpt>
      <trkpt lat="43.47741" lon="-0.06458">
        <ele>270</ele>
        <time>2016-04-28T13:44:50Z</time>
      </trkpt>
      <trkpt lat="43.47725" lon="-0.0644">
        <ele>271</ele>
        <time>2016-04-28T13:45:10Z</time>
      </trkpt>
      <trkpt lat="43.47715" lon="-0.06416">
        <ele>274</ele>
        <time>2016-04-28T13:45:29Z</time>
      </trkpt>
      <trkpt lat="43.47708" lon="-0.06393">
        <ele>273</ele>
        <time>2016-04-28T13:45:45Z</time>
      </trkpt>
      <trkpt lat="43.47694" lon="-0.06357">
        <ele>272</ele>
        <time>2016-04-28T13:46:12Z</time>
      </trkpt>
      <trkpt lat="43.47671" lon="-0.06329">
        <ele>270</ele>
        <time>2016-04-28T13:46:41Z</time>
      </trkpt>
      <trkpt lat="43.47652" lon="-0.06313">
        <ele>268</ele>
        <time>2016-04-28T13:47:01Z</time>
      </trkpt>
      <trkpt lat="43.47632" lon="-0.06299">
        <ele>267</ele>
        <time>2016-04-28T13:47:19Z</time>
      </trkpt>
      <trkpt lat="43.4762" lon="-0.06286">
        <ele>267</ele>
        <time>2016-04-28T13:47:38Z</time>
      </trkpt>
      <trkpt lat="43.47611" lon="-0.06288">
        <ele>267</ele>
        <time>2016-04-28T13:47:53Z</time>
      </trkpt>
      <trkpt lat="43.47605" lon="-0.06289">
        <ele>267</ele>
        <time>2016-04-28T13:48:03Z</time>
      </trkpt>
      <trkpt lat="43.47579" lon="-0.0629">
        <ele>266</ele>
        <time>2016-04-28T13:48:25Z</time>
      </trkpt>
      <trkpt lat="43.47551" lon="-0.06298">
        <ele>263</ele>
        <time>2016-04-28T13:48:50Z</time>
      </trkpt>
      <trkpt lat="43.47546" lon="-0.063">
        <ele>263</ele>
        <time>2016-04-28T13:48:54Z</time>
      </trkpt>
      <trkpt lat="43.47529" lon="-0.06309">
        <ele>262</ele>
        <time>2016-04-28T13:49:11Z</time>
      </trkpt>
      <trkpt lat="43.47525" lon="-0.06306">
        <ele>262</ele>
        <time>2016-04-28T13:49:16Z</time>
      </trkpt>
      <trkpt lat="43.47523" lon="-0.06307">
        <ele>261</ele>
        <time>2016-04-28T13:49:30Z</time>
      </trkpt>
      <trkpt lat="43.47519" lon="-0.06309">
        <ele>261</ele>
        <time>2016-04-28T13:49:38Z</time>
      </trkpt>
      <trkpt lat="43.47514" lon="-0.06309">
        <ele>261</ele>
        <time>2016-04-28T13:49:49Z</time>
      </trkpt>
      <trkpt lat="43.475" lon="-0.06319">
        <ele>262</ele>
        <time>2016-04-28T13:50:01Z</time>
      </trkpt>
      <trkpt lat="43.47482" lon="-0.06323">
        <ele>261</ele>
        <time>2016-04-28T13:50:17Z</time>
      </trkpt>
      <trkpt lat="43.47469" lon="-0.06322">
        <ele>261</ele>
        <time>2016-04-28T13:50:29Z</time>
      </trkpt>
      <trkpt lat="43.47465" lon="-0.06323">
        <ele>261</ele>
        <time>2016-04-28T13:50:32Z</time>
      </trkpt>
      <trkpt lat="43.47453" lon="-0.06321">
        <ele>262</ele>
        <time>2016-04-28T13:50:42Z</time>
      </trkpt>
      <trkpt lat="43.47431" lon="-0.06315">
        <ele>262</ele>
        <time>2016-04-28T13:51:01Z</time>
      </trkpt>
      <trkpt lat="43.47426" lon="-0.06314">
        <ele>261</ele>
        <time>2016-04-28T13:51:05Z</time>
      </trkpt>
      <trkpt lat="43.47397" lon="-0.06307">
        <ele>258</ele>
        <time>2016-04-28T13:51:30Z</time>
      </trkpt>
      <trkpt lat="43.4738" lon="-0.06301">
        <ele>258</ele>
        <time>2016-04-28T13:51:45Z</time>
      </trkpt>
      <trkpt lat="43.47374" lon="-0.06302">
        <ele>255</ele>
        <time>2016-04-28T13:51:51Z</time>
      </trkpt>
      <trkpt lat="43.47356" lon="-0.06292">
        <ele>256</ele>
        <time>2016-04-28T13:52:06Z</time>
      </trkpt>
      <trkpt lat="43.47331" lon="-0.06277">
        <ele>254</ele>
        <time>2016-04-28T13:52:29Z</time>
      </trkpt>
      <trkpt lat="43.47321" lon="-0.06274">
        <ele>255</ele>
        <time>2016-04-28T13:52:48Z</time>
      </trkpt>
      <trkpt lat="43.47318" lon="-0.06277">
        <ele>255</ele>
        <time>2016-04-28T13:52:52Z</time>
      </trkpt>
      <trkpt lat="43.47312" lon="-0.06283">
        <ele>255</ele>
        <time>2016-04-28T13:52:57Z</time>
      </trkpt>
      <trkpt lat="43.47295" lon="-0.0629">
        <ele>251</ele>
        <time>2016-04-28T13:53:11Z</time>
      </trkpt>
      <trkpt lat="43.47281" lon="-0.06296">
        <ele>249</ele>
        <time>2016-04-28T13:53:24Z</time>
      </trkpt>
      <trkpt lat="43.47263" lon="-0.06309">
        <ele>250</ele>
        <time>2016-04-28T13:53:43Z</time>
      </trkpt>
      <trkpt lat="43.47248" lon="-0.06301">
        <ele>251</ele>
        <time>2016-04-28T13:54:03Z</time>
      </trkpt>
      <trkpt lat="43.47238" lon="-0.06293">
        <ele>252</ele>
        <time>2016-04-28T13:54:13Z</time>
      </trkpt>
      <trkpt lat="43.47228" lon="-0.06287">
        <ele>253</ele>
        <time>2016-04-28T13:54:24Z</time>
      </trkpt>
      <trkpt lat="43.47212" lon="-0.06285">
        <ele>255</ele>
        <time>2016-04-28T13:54:44Z</time>
      </trkpt>
      <trkpt lat="43.47191" lon="-0.06269">
        <ele>256</ele>
        <time>2016-04-28T13:55:06Z</time>
      </trkpt>
      <trkpt lat="43.47167" lon="-0.06259">
        <ele>257</ele>
        <time>2016-04-28T13:55:28Z</time>
      </trkpt>
      <trkpt lat="43.47152" lon="-0.06254">
        <ele>258</ele>
        <time>2016-04-28T13:55:45Z</time>
      </trkpt>
      <trkpt lat="43.47131" lon="-0.06245">
        <ele>258</ele>
        <time>2016-04-28T13:56:04Z</time>
      </trkpt>
      <trkpt lat="43.47114" lon="-0.06241">
        <ele>257</ele>
        <time>2016-04-28T13:56:19Z</time>
      </trkpt>
      <trkpt lat="43.47096" lon="-0.06243">
        <ele>255</ele>
        <time>2016-04-28T13:56:39Z</time>
      </trkpt>
      <trkpt lat="43.47084" lon="-0.06239">
        <ele>253</ele>
        <time>2016-04-28T13:56:57Z</time>
      </trkpt>
      <trkpt lat="43.47073" lon="-0.06233">
        <ele>252</ele>
        <time>2016-04-28T13:57:14Z</time>
      </trkpt>
      <trkpt lat="43.4707" lon="-0.06244">
        <ele>252</ele>
        <time>2016-04-28T13:58:08Z</time>
      </trkpt>
      <trkpt lat="43.47072" lon="-0.06245">
        <ele>251</ele>
        <time>2016-04-28T13:58:27Z</time>
      </trkpt>
      <trkpt lat="43.47074" lon="-0.06242">
        <ele>251</ele>
        <time>2016-04-28T13:58:44Z</time>
      </trkpt>
      <trkpt lat="43.47081" lon="-0.06237">
        <ele>250</ele>
        <time>2016-04-28T13:58:57Z</time>
      </trkpt>
      <trkpt lat="43.47081" lon="-0.06228">
        <ele>247</ele>
        <time>2016-04-28T13:59:35Z</time>
      </trkpt>
      <trkpt lat="43.47071" lon="-0.06218">
        <ele>246</ele>
        <time>2016-04-28T14:02:21Z</time>
      </trkpt>
      <trkpt lat="43.47072" lon="-0.06223">
        <ele>244</ele>
        <time>2016-04-28T14:03:24Z</time>
      </trkpt>
      <trkpt lat="43.47079" lon="-0.0623">
        <ele>244</ele>
        <time>2016-04-28T14:05:21Z</time>
      </trkpt>
      <trkpt lat="43.47072" lon="-0.06229">
        <ele>243</ele>
        <time>2016-04-28T14:06:53Z</time>
      </trkpt>
      <trkpt lat="43.47087" lon="-0.06233">
        <ele>243</ele>
        <time>2016-04-28T14:07:42Z</time>
      </trkpt>
      <trkpt lat="43.47091" lon="-0.0624">
        <ele>241</ele>
        <time>2016-04-28T14:08:53Z</time>
      </trkpt>
      <trkpt lat="43.47106" lon="-0.06247">
        <ele>239</ele>
        <time>2016-04-28T14:09:15Z</time>
      </trkpt>
      <trkpt lat="43.47117" lon="-0.0625">
        <ele>239</ele>
        <time>2016-04-28T14:09:33Z</time>
      </trkpt>
      <trkpt lat="43.47132" lon="-0.06257">
        <ele>239</ele>
        <time>2016-04-28T14:09:51Z</time>
      </trkpt>
      <trkpt lat="43.47145" lon="-0.06262">
        <ele>239</ele>
        <time>2016-04-28T14:10:03Z</time>
      </trkpt>
      <trkpt lat="43.47154" lon="-0.06262">
        <ele>238</ele>
        <time>2016-04-28T14:10:07Z</time>
      </trkpt>
      <trkpt lat="43.4716" lon="-0.06261">
        <ele>238</ele>
        <time>2016-04-28T14:10:11Z</time>
      </trkpt>
      <trkpt lat="43.4717" lon="-0.06267">
        <ele>236</ele>
        <time>2016-04-28T14:10:24Z</time>
      </trkpt>
      <trkpt lat="43.47175" lon="-0.06266">
        <ele>236</ele>
        <time>2016-04-28T14:10:27Z</time>
      </trkpt>
      <trkpt lat="43.47187" lon="-0.06271">
        <ele>240</ele>
        <time>2016-04-28T14:10:37Z</time>
      </trkpt>
      <trkpt lat="43.47189" lon="-0.06273">
        <ele>241</ele>
        <time>2016-04-28T14:10:40Z</time>
      </trkpt>
      <trkpt lat="43.47191" lon="-0.0628">
        <ele>244</ele>
        <time>2016-04-28T14:10:48Z</time>
      </trkpt>
      <trkpt lat="43.47193" lon="-0.06282">
        <ele>243</ele>
        <time>2016-04-28T14:10:50Z</time>
      </trkpt>
      <trkpt lat="43.47206" lon="-0.06287">
        <ele>243</ele>
        <time>2016-04-28T14:11:01Z</time>
      </trkpt>
      <trkpt lat="43.47211" lon="-0.0629">
        <ele>243</ele>
        <time>2016-04-28T14:11:13Z</time>
      </trkpt>
      <trkpt lat="43.47217" lon="-0.06291">
        <ele>244</ele>
        <time>2016-04-28T14:11:17Z</time>
      </trkpt>
      <trkpt lat="43.47229" lon="-0.06293">
        <ele>243</ele>
        <time>2016-04-28T14:11:31Z</time>
      </trkpt>
      <trkpt lat="43.47235" lon="-0.06298">
        <ele>241</ele>
        <time>2016-04-28T14:11:44Z</time>
      </trkpt>
      <trkpt lat="43.47238" lon="-0.06307">
        <ele>240</ele>
        <time>2016-04-28T14:11:56Z</time>
      </trkpt>
      <trkpt lat="43.47241" lon="-0.06307">
        <ele>240</ele>
        <time>2016-04-28T14:11:59Z</time>
      </trkpt>
      <trkpt lat="43.47249" lon="-0.06311">
        <ele>239</ele>
        <time>2016-04-28T14:12:10Z</time>
      </trkpt>
      <trkpt lat="43.47258" lon="-0.06316">
        <ele>241</ele>
        <time>2016-04-28T14:12:24Z</time>
      </trkpt>
      <trkpt lat="43.47265" lon="-0.06314">
        <ele>243</ele>
        <time>2016-04-28T14:12:33Z</time>
      </trkpt>
      <trkpt lat="43.47285" lon="-0.06305">
        <ele>248</ele>
        <time>2016-04-28T14:12:56Z</time>
      </trkpt>
      <trkpt lat="43.473" lon="-0.06296">
        <ele>250</ele>
        <time>2016-04-28T14:13:09Z</time>
      </trkpt>
      <trkpt lat="43.47311" lon="-0.0629">
        <ele>250</ele>
        <time>2016-04-28T14:13:24Z</time>
      </trkpt>
      <trkpt lat="43.47315" lon="-0.06287">
        <ele>251</ele>
        <time>2016-04-28T14:13:28Z</time>
      </trkpt>
      <trkpt lat="43.47321" lon="-0.06277">
        <ele>250</ele>
        <time>2016-04-28T14:13:40Z</time>
      </trkpt>
      <trkpt lat="43.47324" lon="-0.06277">
        <ele>250</ele>
        <time>2016-04-28T14:13:42Z</time>
      </trkpt>
      <trkpt lat="43.47321" lon="-0.06268">
        <ele>250</ele>
        <time>2016-04-28T14:13:53Z</time>
      </trkpt>
      <trkpt lat="43.47315" lon="-0.06265">
        <ele>251</ele>
        <time>2016-04-28T14:14:01Z</time>
      </trkpt>
      <trkpt lat="43.47313" lon="-0.06264">
        <ele>252</ele>
        <time>2016-04-28T14:14:22Z</time>
      </trkpt>
      <trkpt lat="43.473" lon="-0.0625">
        <ele>254</ele>
        <time>2016-04-28T14:14:37Z</time>
      </trkpt>
      <trkpt lat="43.47297" lon="-0.06246">
        <ele>255</ele>
        <time>2016-04-28T14:14:43Z</time>
      </trkpt>
      <trkpt lat="43.47271" lon="-0.06223">
        <ele>258</ele>
        <time>2016-04-28T14:15:10Z</time>
      </trkpt>
      <trkpt lat="43.47263" lon="-0.06215">
        <ele>258</ele>
        <time>2016-04-28T14:15:25Z</time>
      </trkpt>
      <trkpt lat="43.47263" lon="-0.06215">
        <ele>258</ele>
        <time>2016-04-28T14:15:34Z</time>
      </trkpt>
      <trkpt lat="43.47243" lon="-0.06207">
        <ele>258</ele>
        <time>2016-04-28T14:15:52Z</time>
      </trkpt>
      <trkpt lat="43.47216" lon="-0.06185">
        <ele>258</ele>
        <time>2016-04-28T14:16:17Z</time>
      </trkpt>
      <trkpt lat="43.47198" lon="-0.06169">
        <ele>257</ele>
        <time>2016-04-28T14:16:36Z</time>
      </trkpt>
      <trkpt lat="43.47177" lon="-0.06151">
        <ele>257</ele>
        <time>2016-04-28T14:16:53Z</time>
      </trkpt>
      <trkpt lat="43.47153" lon="-0.06143">
        <ele>245</ele>
        <time>2016-04-28T14:17:15Z</time>
      </trkpt>
      <trkpt lat="43.47123" lon="-0.06129">
        <ele>251</ele>
        <time>2016-04-28T14:17:38Z</time>
      </trkpt>
      <trkpt lat="43.4711" lon="-0.06123">
        <ele>248</ele>
        <time>2016-04-28T14:17:49Z</time>
      </trkpt>
      <trkpt lat="43.47081" lon="-0.0611">
        <ele>254</ele>
        <time>2016-04-28T14:18:12Z</time>
      </trkpt>
      <trkpt lat="43.47075" lon="-0.06107">
        <ele>256</ele>
        <time>2016-04-28T14:18:18Z</time>
      </trkpt>
      <trkpt lat="43.47069" lon="-0.06106">
        <ele>258</ele>
        <time>2016-04-28T14:18:38Z</time>
      </trkpt>
      <trkpt lat="43.47067" lon="-0.06108">
        <ele>259</ele>
        <time>2016-04-28T14:19:07Z</time>
      </trkpt>
      <trkpt lat="43.47068" lon="-0.06104">
        <ele>261</ele>
        <time>2016-04-28T14:19:37Z</time>
      </trkpt>
      <trkpt lat="43.4707" lon="-0.06107">
        <ele>261</ele>
        <time>2016-04-28T14:20:18Z</time>
      </trkpt>
      <trkpt lat="43.47086" lon="-0.06116">
        <ele>262</ele>
        <time>2016-04-28T14:20:37Z</time>
      </trkpt>
      <trkpt lat="43.47099" lon="-0.06122">
        <ele>261</ele>
        <time>2016-04-28T14:20:57Z</time>
      </trkpt>
      <trkpt lat="43.47116" lon="-0.0613">
        <ele>258</ele>
        <time>2016-04-28T14:21:13Z</time>
      </trkpt>
      <trkpt lat="43.47139" lon="-0.0614">
        <ele>255</ele>
        <time>2016-04-28T14:21:34Z</time>
      </trkpt>
      <trkpt lat="43.47167" lon="-0.06154">
        <ele>252</ele>
        <time>2016-04-28T14:21:58Z</time>
      </trkpt>
      <trkpt lat="43.47186" lon="-0.06159">
        <ele>251</ele>
        <time>2016-04-28T14:22:14Z</time>
      </trkpt>
      <trkpt lat="43.47189" lon="-0.06153">
        <ele>252</ele>
        <time>2016-04-28T14:22:17Z</time>
      </trkpt>
      <trkpt lat="43.47192" lon="-0.0615">
        <ele>251</ele>
        <time>2016-04-28T14:22:21Z</time>
      </trkpt>
      <trkpt lat="43.47195" lon="-0.06142">
        <ele>250</ele>
        <time>2016-04-28T14:22:32Z</time>
      </trkpt>
      <trkpt lat="43.47198" lon="-0.06135">
        <ele>249</ele>
        <time>2016-04-28T14:22:43Z</time>
      </trkpt>
      <trkpt lat="43.47207" lon="-0.06115">
        <ele>252</ele>
        <time>2016-04-28T14:23:04Z</time>
      </trkpt>
      <trkpt lat="43.47208" lon="-0.06091">
        <ele>252</ele>
        <time>2016-04-28T14:23:23Z</time>
      </trkpt>
      <trkpt lat="43.47201" lon="-0.06068">
        <ele>252</ele>
        <time>2016-04-28T14:23:39Z</time>
      </trkpt>
      <trkpt lat="43.47196" lon="-0.06052">
        <ele>256</ele>
        <time>2016-04-28T14:23:53Z</time>
      </trkpt>
      <trkpt lat="43.47191" lon="-0.06037">
        <ele>256</ele>
        <time>2016-04-28T14:24:06Z</time>
      </trkpt>
      <trkpt lat="43.4719" lon="-0.06033">
        <ele>257</ele>
        <time>2016-04-28T14:24:09Z</time>
      </trkpt>
      <trkpt lat="43.47189" lon="-0.0603">
        <ele>258</ele>
        <time>2016-04-28T14:24:11Z</time>
      </trkpt>
      <trkpt lat="43.47184" lon="-0.06015">
        <ele>260</ele>
        <time>2016-04-28T14:24:26Z</time>
      </trkpt>
      <trkpt lat="43.47181" lon="-0.06002">
        <ele>258</ele>
        <time>2016-04-28T14:24:41Z</time>
      </trkpt>
      <trkpt lat="43.47177" lon="-0.05987">
        <ele>259</ele>
        <time>2016-04-28T14:24:56Z</time>
      </trkpt>
      <trkpt lat="43.47174" lon="-0.0597">
        <ele>256</ele>
        <time>2016-04-28T14:25:10Z</time>
      </trkpt>
      <trkpt lat="43.47174" lon="-0.05963">
        <ele>255</ele>
        <time>2016-04-28T14:25:19Z</time>
      </trkpt>
      <trkpt lat="43.47181" lon="-0.05955">
        <ele>251</ele>
        <time>2016-04-28T14:25:31Z</time>
      </trkpt>
      <trkpt lat="43.47183" lon="-0.0594">
        <ele>251</ele>
        <time>2016-04-28T14:25:45Z</time>
      </trkpt>
      <trkpt lat="43.47185" lon="-0.05924">
        <ele>249</ele>
        <time>2016-04-28T14:26:02Z</time>
      </trkpt>
      <trkpt lat="43.47182" lon="-0.05911">
        <ele>246</ele>
        <time>2016-04-28T14:26:17Z</time>
      </trkpt>
      <trkpt lat="43.47186" lon="-0.05897">
        <ele>242</ele>
        <time>2016-04-28T14:26:31Z</time>
      </trkpt>
      <trkpt lat="43.47187" lon="-0.05884">
        <ele>240</ele>
        <time>2016-04-28T14:26:44Z</time>
      </trkpt>
      <trkpt lat="43.47201" lon="-0.05882">
        <ele>233</ele>
        <time>2016-04-28T14:26:58Z</time>
      </trkpt>
      <trkpt lat="43.47207" lon="-0.05878">
        <ele>232</ele>
        <time>2016-04-28T14:27:05Z</time>
      </trkpt>
      <trkpt lat="43.47207" lon="-0.05861">
        <ele>230</ele>
        <time>2016-04-28T14:27:20Z</time>
      </trkpt>
      <trkpt lat="43.47217" lon="-0.0586">
        <ele>231</ele>
        <time>2016-04-28T14:27:42Z</time>
      </trkpt>
      <trkpt lat="43.47227" lon="-0.0587">
        <ele>232</ele>
        <time>2016-04-28T14:28:04Z</time>
      </trkpt>
      <trkpt lat="43.47236" lon="-0.05881">
        <ele>231</ele>
        <time>2016-04-28T14:28:16Z</time>
      </trkpt>
      <trkpt lat="43.47247" lon="-0.05891">
        <ele>230</ele>
        <time>2016-04-28T14:28:27Z</time>
      </trkpt>
      <trkpt lat="43.47249" lon="-0.05891">
        <ele>230</ele>
        <time>2016-04-28T14:28:38Z</time>
      </trkpt>
      <trkpt lat="43.47248" lon="-0.05873">
        <ele>229</ele>
        <time>2016-04-28T14:28:57Z</time>
      </trkpt>
      <trkpt lat="43.47245" lon="-0.05861">
        <ele>227</ele>
        <time>2016-04-28T14:29:04Z</time>
      </trkpt>
      <trkpt lat="43.47241" lon="-0.05858">
        <ele>226</ele>
        <time>2016-04-28T14:29:08Z</time>
      </trkpt>
      <trkpt lat="43.47239" lon="-0.05852">
        <ele>224</ele>
        <time>2016-04-28T14:29:13Z</time>
      </trkpt>
      <trkpt lat="43.47236" lon="-0.05822">
        <ele>223</ele>
        <time>2016-04-28T14:29:33Z</time>
      </trkpt>
      <trkpt lat="43.47235" lon="-0.05807">
        <ele>222</ele>
        <time>2016-04-28T14:29:42Z</time>
      </trkpt>
      <trkpt lat="43.47235" lon="-0.05801">
        <ele>223</ele>
        <time>2016-04-28T14:29:45Z</time>
      </trkpt>
      <trkpt lat="43.4724" lon="-0.05797">
        <ele>222</ele>
        <time>2016-04-28T14:29:52Z</time>
      </trkpt>
      <trkpt lat="43.47256" lon="-0.05802">
        <ele>220</ele>
        <time>2016-04-28T14:30:07Z</time>
      </trkpt>
      <trkpt lat="43.4727" lon="-0.05807">
        <ele>218</ele>
        <time>2016-04-28T14:30:20Z</time>
      </trkpt>
      <trkpt lat="43.47278" lon="-0.05812">
        <ele>218</ele>
        <time>2016-04-28T14:30:37Z</time>
      </trkpt>
      <trkpt lat="43.47283" lon="-0.05812">
        <ele>216</ele>
        <time>2016-04-28T14:30:50Z</time>
      </trkpt>
      <trkpt lat="43.47286" lon="-0.05815">
        <ele>214</ele>
        <time>2016-04-28T14:30:58Z</time>
      </trkpt>
      <trkpt lat="43.47279" lon="-0.05811">
        <ele>214</ele>
        <time>2016-04-28T14:31:12Z</time>
      </trkpt>
      <trkpt lat="43.47289" lon="-0.05814">
        <ele>214</ele>
        <time>2016-04-28T14:31:43Z</time>
      </trkpt>
      <trkpt lat="43.47302" lon="-0.05818">
        <ele>213</ele>
        <time>2016-04-28T14:32:03Z</time>
      </trkpt>
      <trkpt lat="43.47316" lon="-0.05819">
        <ele>212</ele>
        <time>2016-04-28T14:32:24Z</time>
      </trkpt>
      <trkpt lat="43.47322" lon="-0.05819">
        <ele>214</ele>
        <time>2016-04-28T14:32:41Z</time>
      </trkpt>
      <trkpt lat="43.47324" lon="-0.05819">
        <ele>215</ele>
        <time>2016-04-28T14:33:24Z</time>
      </trkpt>
      <trkpt lat="43.47334" lon="-0.05822">
        <ele>215</ele>
        <time>2016-04-28T14:33:40Z</time>
      </trkpt>
      <trkpt lat="43.47348" lon="-0.05826">
        <ele>216</ele>
        <time>2016-04-28T14:34:00Z</time>
      </trkpt>
      <trkpt lat="43.47354" lon="-0.05826">
        <ele>217</ele>
        <time>2016-04-28T14:34:20Z</time>
      </trkpt>
      <trkpt lat="43.47355" lon="-0.05827">
        <ele>217</ele>
        <time>2016-04-28T14:34:24Z</time>
      </trkpt>
      <trkpt lat="43.47371" lon="-0.05832">
        <ele>219</ele>
        <time>2016-04-28T14:34:39Z</time>
      </trkpt>
      <trkpt lat="43.47374" lon="-0.05829">
        <ele>219</ele>
        <time>2016-04-28T14:34:43Z</time>
      </trkpt>
      <trkpt lat="43.47376" lon="-0.05828">
        <ele>220</ele>
        <time>2016-04-28T14:34:45Z</time>
      </trkpt>
      <trkpt lat="43.47376" lon="-0.05824">
        <ele>220</ele>
        <time>2016-04-28T14:35:02Z</time>
      </trkpt>
      <trkpt lat="43.47388" lon="-0.05779">
        <ele>222</ele>
        <time>2016-04-28T14:35:31Z</time>
      </trkpt>
      <trkpt lat="43.47388" lon="-0.05778">
        <ele>222</ele>
        <time>2016-04-28T14:35:33Z</time>
      </trkpt>
      <trkpt lat="43.4739" lon="-0.05774">
        <ele>222</ele>
        <time>2016-04-28T14:35:54Z</time>
      </trkpt>
      <trkpt lat="43.47392" lon="-0.05771">
        <ele>222</ele>
        <time>2016-04-28T14:36:23Z</time>
      </trkpt>
      <trkpt lat="43.47392" lon="-0.05771">
        <ele>223</ele>
        <time>2016-04-28T14:36:39Z</time>
      </trkpt>
      <trkpt lat="43.47392" lon="-0.0577">
        <ele>223</ele>
        <time>2016-04-28T14:36:43Z</time>
      </trkpt>
      <trkpt lat="43.47392" lon="-0.05773">
        <ele>223</ele>
        <time>2016-04-28T14:36:48Z</time>
      </trkpt>
      <trkpt lat="43.47392" lon="-0.05757">
        <ele>223</ele>
        <time>2016-04-28T14:37:01Z</time>
      </trkpt>
      <trkpt lat="43.47404" lon="-0.05706">
        <ele>223</ele>
        <time>2016-04-28T14:37:31Z</time>
      </trkpt>
      <trkpt lat="43.47414" lon="-0.05666">
        <ele>223</ele>
        <time>2016-04-28T14:38:01Z</time>
      </trkpt>
      <trkpt lat="43.47419" lon="-0.05646">
        <ele>223</ele>
        <time>2016-04-28T14:38:20Z</time>
      </trkpt>
      <trkpt lat="43.4742" lon="-0.0564">
        <ele>222</ele>
        <time>2016-04-28T14:38:24Z</time>
      </trkpt>
      <trkpt lat="43.47408" lon="-0.05624">
        <ele>220</ele>
        <time>2016-04-28T14:38:45Z</time>
      </trkpt>
      <trkpt lat="43.47398" lon="-0.05619">
        <ele>220</ele>
        <time>2016-04-28T14:39:11Z</time>
      </trkpt>
      <trkpt lat="43.47396" lon="-0.05617">
        <ele>220</ele>
        <time>2016-04-28T14:39:15Z</time>
      </trkpt>
      <trkpt lat="43.4739" lon="-0.05615">
        <ele>220</ele>
        <time>2016-04-28T14:39:21Z</time>
      </trkpt>
      <trkpt lat="43.4738" lon="-0.05604">
        <ele>219</ele>
        <time>2016-04-28T14:39:37Z</time>
      </trkpt>
      <trkpt lat="43.47378" lon="-0.056">
        <ele>219</ele>
        <time>2016-04-28T14:39:54Z</time>
      </trkpt>
      <trkpt lat="43.47372" lon="-0.05601">
        <ele>220</ele>
        <time>2016-04-28T14:40:05Z</time>
      </trkpt>
      <trkpt lat="43.47364" lon="-0.056">
        <ele>218</ele>
        <time>2016-04-28T14:40:19Z</time>
      </trkpt>
      <trkpt lat="43.47362" lon="-0.0559">
        <ele>218</ele>
        <time>2016-04-28T14:40:33Z</time>
      </trkpt>
      <trkpt lat="43.47368" lon="-0.05583">
        <ele>216</ele>
        <time>2016-04-28T14:40:47Z</time>
      </trkpt>
      <trkpt lat="43.4737" lon="-0.05579">
        <ele>216</ele>
        <time>2016-04-28T14:40:50Z</time>
      </trkpt>
      <trkpt lat="43.47372" lon="-0.05576">
        <ele>215</ele>
        <time>2016-04-28T14:40:54Z</time>
      </trkpt>
      <trkpt lat="43.4738" lon="-0.05555">
        <ele>214</ele>
        <time>2016-04-28T14:41:12Z</time>
      </trkpt>
      <trkpt lat="43.47382" lon="-0.05542">
        <ele>214</ele>
        <time>2016-04-28T14:41:28Z</time>
      </trkpt>
      <trkpt lat="43.47387" lon="-0.0552">
        <ele>214</ele>
        <time>2016-04-28T14:41:46Z</time>
      </trkpt>
      <trkpt lat="43.47396" lon="-0.05477">
        <ele>213</ele>
        <time>2016-04-28T14:42:15Z</time>
      </trkpt>
      <trkpt lat="43.47407" lon="-0.05428">
        <ele>212</ele>
        <time>2016-04-28T14:42:48Z</time>
      </trkpt>
      <trkpt lat="43.47416" lon="-0.05385">
        <ele>212</ele>
        <time>2016-04-28T14:43:19Z</time>
      </trkpt>
      <trkpt lat="43.47421" lon="-0.05357">
        <ele>211</ele>
        <time>2016-04-28T14:43:40Z</time>
      </trkpt>
      <trkpt lat="43.47427" lon="-0.0533">
        <ele>211</ele>
        <time>2016-04-28T14:44:02Z</time>
      </trkpt>
      <trkpt lat="43.47435" lon="-0.05298">
        <ele>212</ele>
        <time>2016-04-28T14:44:25Z</time>
      </trkpt>
      <trkpt lat="43.47438" lon="-0.05286">
        <ele>212</ele>
        <time>2016-04-28T14:44:34Z</time>
      </trkpt>
      <trkpt lat="43.47446" lon="-0.05248">
        <ele>212</ele>
        <time>2016-04-28T14:45:00Z</time>
      </trkpt>
      <trkpt lat="43.47455" lon="-0.05207">
        <ele>211</ele>
        <time>2016-04-28T14:45:30Z</time>
      </trkpt>
      <trkpt lat="43.47459" lon="-0.0519">
        <ele>210</ele>
        <time>2016-04-28T14:45:45Z</time>
      </trkpt>
      <trkpt lat="43.47467" lon="-0.0515">
        <ele>210</ele>
        <time>2016-04-28T14:46:12Z</time>
      </trkpt>
      <trkpt lat="43.47473" lon="-0.05116">
        <ele>208</ele>
        <time>2016-04-28T14:46:37Z</time>
      </trkpt>
      <trkpt lat="43.47484" lon="-0.05068">
        <ele>207</ele>
        <time>2016-04-28T14:47:09Z</time>
      </trkpt>
      <trkpt lat="43.4749" lon="-0.05037">
        <ele>207</ele>
        <time>2016-04-28T14:47:33Z</time>
      </trkpt>
      <trkpt lat="43.47498" lon="-0.04996">
        <ele>206</ele>
        <time>2016-04-28T14:48:02Z</time>
      </trkpt>
      <trkpt lat="43.47503" lon="-0.04972">
        <ele>205</ele>
        <time>2016-04-28T14:48:20Z</time>
      </trkpt>
      <trkpt lat="43.47512" lon="-0.04935">
        <ele>204</ele>
        <time>2016-04-28T14:48:46Z</time>
      </trkpt>
      <trkpt lat="43.47523" lon="-0.04883">
        <ele>203</ele>
        <time>2016-04-28T14:49:21Z</time>
      </trkpt>
      <trkpt lat="43.47529" lon="-0.04848">
        <ele>202</ele>
        <time>2016-04-28T14:49:47Z</time>
      </trkpt>
      <trkpt lat="43.4753" lon="-0.04844">
        <ele>202</ele>
        <time>2016-04-28T14:49:50Z</time>
      </trkpt>
      <trkpt lat="43.47531" lon="-0.04822">
        <ele>201</ele>
        <time>2016-04-28T14:50:06Z</time>
      </trkpt>
      <trkpt lat="43.4753" lon="-0.04814">
        <ele>201</ele>
        <time>2016-04-28T14:50:12Z</time>
      </trkpt>
      <trkpt lat="43.47525" lon="-0.04804">
        <ele>202</ele>
        <time>2016-04-28T14:50:23Z</time>
      </trkpt>
      <trkpt lat="43.47523" lon="-0.04802">
        <ele>202</ele>
        <time>2016-04-28T14:50:25Z</time>
      </trkpt>
      <trkpt lat="43.4751" lon="-0.04779">
        <ele>204</ele>
        <time>2016-04-28T14:50:48Z</time>
      </trkpt>
      <trkpt lat="43.47504" lon="-0.04749">
        <ele>204</ele>
        <time>2016-04-28T14:51:11Z</time>
      </trkpt>
      <trkpt lat="43.47511" lon="-0.04743">
        <ele>202</ele>
        <time>2016-04-28T14:51:25Z</time>
      </trkpt>
      <trkpt lat="43.47529" lon="-0.04737">
        <ele>201</ele>
        <time>2016-04-28T14:51:43Z</time>
      </trkpt>
      <trkpt lat="43.47545" lon="-0.04731">
        <ele>198</ele>
        <time>2016-04-28T14:51:58Z</time>
      </trkpt>
      <trkpt lat="43.47564" lon="-0.04723">
        <ele>195</ele>
        <time>2016-04-28T14:52:15Z</time>
      </trkpt>
      <trkpt lat="43.47576" lon="-0.04723">
        <ele>195</ele>
        <time>2016-04-28T14:52:27Z</time>
      </trkpt>
      <trkpt lat="43.47607" lon="-0.04726">
        <ele>197</ele>
        <time>2016-04-28T14:52:53Z</time>
      </trkpt>
      <trkpt lat="43.47618" lon="-0.04727">
        <ele>198</ele>
        <time>2016-04-28T14:53:05Z</time>
      </trkpt>
      <trkpt lat="43.47638" lon="-0.04726">
        <ele>201</ele>
        <time>2016-04-28T14:53:24Z</time>
      </trkpt>
      <trkpt lat="43.47663" lon="-0.04727">
        <ele>204</ele>
        <time>2016-04-28T14:53:46Z</time>
      </trkpt>
      <trkpt lat="43.4768" lon="-0.04725">
        <ele>207</ele>
        <time>2016-04-28T14:54:03Z</time>
      </trkpt>
      <trkpt lat="43.47697" lon="-0.04724">
        <ele>208</ele>
        <time>2016-04-28T14:54:23Z</time>
      </trkpt>
      <trkpt lat="43.47709" lon="-0.04715">
        <ele>209</ele>
        <time>2016-04-28T14:54:40Z</time>
      </trkpt>
      <trkpt lat="43.47711" lon="-0.04717">
        <ele>209</ele>
        <time>2016-04-28T14:54:44Z</time>
      </trkpt>
      <trkpt lat="43.47722" lon="-0.04723">
        <ele>209</ele>
        <time>2016-04-28T14:54:55Z</time>
      </trkpt>
      <trkpt lat="43.47725" lon="-0.04726">
        <ele>210</ele>
        <time>2016-04-28T14:54:58Z</time>
      </trkpt>
      <trkpt lat="43.47728" lon="-0.04728">
        <ele>210</ele>
        <time>2016-04-28T14:55:02Z</time>
      </trkpt>
      <trkpt lat="43.47743" lon="-0.04726">
        <ele>212</ele>
        <time>2016-04-28T14:55:18Z</time>
      </trkpt>
      <trkpt lat="43.47745" lon="-0.04727">
        <ele>212</ele>
        <time>2016-04-28T14:55:20Z</time>
      </trkpt>
      <trkpt lat="43.47751" lon="-0.04749">
        <ele>214</ele>
        <time>2016-04-28T14:55:38Z</time>
      </trkpt>
      <trkpt lat="43.47758" lon="-0.04779">
        <ele>214</ele>
        <time>2016-04-28T14:56:00Z</time>
      </trkpt>
      <trkpt lat="43.47766" lon="-0.04814">
        <ele>218</ele>
        <time>2016-04-28T14:56:24Z</time>
      </trkpt>
      <trkpt lat="43.47777" lon="-0.04835">
        <ele>219</ele>
        <time>2016-04-28T14:56:45Z</time>
      </trkpt>
      <trkpt lat="43.47779" lon="-0.04837">
        <ele>219</ele>
        <time>2016-04-28T14:56:48Z</time>
      </trkpt>
      <trkpt lat="43.47785" lon="-0.04858">
        <ele>219</ele>
        <time>2016-04-28T14:57:09Z</time>
      </trkpt>
      <trkpt lat="43.47786" lon="-0.0486">
        <ele>219</ele>
        <time>2016-04-28T14:57:17Z</time>
      </trkpt>
      <trkpt lat="43.47787" lon="-0.04863">
        <ele>218</ele>
        <time>2016-04-28T14:57:19Z</time>
      </trkpt>
      <trkpt lat="43.47788" lon="-0.04865">
        <ele>218</ele>
        <time>2016-04-28T14:57:21Z</time>
      </trkpt>
      <trkpt lat="43.4779" lon="-0.04871">
        <ele>219</ele>
        <time>2016-04-28T14:57:25Z</time>
      </trkpt>
      <trkpt lat="43.47793" lon="-0.04891">
        <ele>219</ele>
        <time>2016-04-28T14:57:39Z</time>
      </trkpt>
      <trkpt lat="43.47798" lon="-0.04923">
        <ele>220</ele>
        <time>2016-04-28T14:58:00Z</time>
      </trkpt>
      <trkpt lat="43.47808" lon="-0.04956">
        <ele>221</ele>
        <time>2016-04-28T14:58:25Z</time>
      </trkpt>
      <trkpt lat="43.47815" lon="-0.04986">
        <ele>222</ele>
        <time>2016-04-28T14:58:48Z</time>
      </trkpt>
      <trkpt lat="43.47822" lon="-0.05028">
        <ele>223</ele>
        <time>2016-04-28T14:59:17Z</time>
      </trkpt>
      <trkpt lat="43.47828" lon="-0.05054">
        <ele>222</ele>
        <time>2016-04-28T14:59:39Z</time>
      </trkpt>
      <trkpt lat="43.47832" lon="-0.05074">
        <ele>222</ele>
        <time>2016-04-28T14:59:54Z</time>
      </trkpt>
      <trkpt lat="43.47833" lon="-0.05078">
        <ele>223</ele>
        <time>2016-04-28T14:59:56Z</time>
      </trkpt>
      <trkpt lat="43.47838" lon="-0.051">
        <ele>223</ele>
        <time>2016-04-28T15:00:12Z</time>
      </trkpt>
      <trkpt lat="43.4784" lon="-0.05121">
        <ele>223</ele>
        <time>2016-04-28T15:00:26Z</time>
      </trkpt>
      <trkpt lat="43.47844" lon="-0.05146">
        <ele>224</ele>
        <time>2016-04-28T15:00:44Z</time>
      </trkpt>
      <trkpt lat="43.47846" lon="-0.05164">
        <ele>226</ele>
        <time>2016-04-28T15:01:02Z</time>
      </trkpt>
      <trkpt lat="43.47854" lon="-0.05178">
        <ele>226</ele>
        <time>2016-04-28T15:01:16Z</time>
      </trkpt>
      <trkpt lat="43.47861" lon="-0.05189">
        <ele>227</ele>
        <time>2016-04-28T15:01:26Z</time>
      </trkpt>
      <trkpt lat="43.47869" lon="-0.05199">
        <ele>230</ele>
        <time>2016-04-28T15:01:38Z</time>
      </trkpt>
      <trkpt lat="43.47873" lon="-0.05204">
        <ele>232</ele>
        <time>2016-04-28T15:01:43Z</time>
      </trkpt>
      <trkpt lat="43.47882" lon="-0.05213">
        <ele>232</ele>
        <time>2016-04-28T15:01:53Z</time>
      </trkpt>
      <trkpt lat="43.47892" lon="-0.05242">
        <ele>233</ele>
        <time>2016-04-28T15:02:15Z</time>
      </trkpt>
      <trkpt lat="43.47906" lon="-0.05276">
        <ele>234</ele>
        <time>2016-04-28T15:02:40Z</time>
      </trkpt>
      <trkpt lat="43.47912" lon="-0.05285">
        <ele>234</ele>
        <time>2016-04-28T15:02:49Z</time>
      </trkpt>
      <trkpt lat="43.4792" lon="-0.05297">
        <ele>234</ele>
        <time>2016-04-28T15:03:00Z</time>
      </trkpt>
      <trkpt lat="43.47921" lon="-0.05301">
        <ele>234</ele>
        <time>2016-04-28T15:03:03Z</time>
      </trkpt>
      <trkpt lat="43.47934" lon="-0.05318">
        <ele>234</ele>
        <time>2016-04-28T15:03:21Z</time>
      </trkpt>
      <trkpt lat="43.47951" lon="-0.05339">
        <ele>237</ele>
        <time>2016-04-28T15:03:40Z</time>
      </trkpt>
      <trkpt lat="43.47959" lon="-0.05353">
        <ele>242</ele>
        <time>2016-04-28T15:03:53Z</time>
      </trkpt>
      <trkpt lat="43.47969" lon="-0.05365">
        <ele>243</ele>
        <time>2016-04-28T15:04:09Z</time>
      </trkpt>
      <trkpt lat="43.47986" lon="-0.05386">
        <ele>244</ele>
        <time>2016-04-28T15:04:31Z</time>
      </trkpt>
      <trkpt lat="43.47998" lon="-0.05404">
        <ele>246</ele>
        <time>2016-04-28T15:04:51Z</time>
      </trkpt>
      <trkpt lat="43.48012" lon="-0.05421">
        <ele>249</ele>
        <time>2016-04-28T15:05:11Z</time>
      </trkpt>
      <trkpt lat="43.48024" lon="-0.05432">
        <ele>249</ele>
        <time>2016-04-28T15:05:25Z</time>
      </trkpt>
      <trkpt lat="43.48034" lon="-0.05441">
        <ele>250</ele>
        <time>2016-04-28T15:05:38Z</time>
      </trkpt>
      <trkpt lat="43.48043" lon="-0.05453">
        <ele>253</ele>
        <time>2016-04-28T15:05:54Z</time>
      </trkpt>
      <trkpt lat="43.48055" lon="-0.05467">
        <ele>256</ele>
        <time>2016-04-28T15:06:09Z</time>
      </trkpt>
      <trkpt lat="43.48074" lon="-0.05495">
        <ele>261</ele>
        <time>2016-04-28T15:06:33Z</time>
      </trkpt>
      <trkpt lat="43.48081" lon="-0.05508">
        <ele>252</ele>
        <time>2016-04-28T15:06:52Z</time>
      </trkpt>
      <trkpt lat="43.48088" lon="-0.05516">
        <ele>251</ele>
        <time>2016-04-28T15:07:07Z</time>
      </trkpt>
      <trkpt lat="43.48094" lon="-0.05521">
        <ele>253</ele>
        <time>2016-04-28T15:07:24Z</time>
      </trkpt>
      <trkpt lat="43.48095" lon="-0.05521">
        <ele>253</ele>
        <time>2016-04-28T15:07:45Z</time>
      </trkpt>
      <trkpt lat="43.48099" lon="-0.05525">
        <ele>253</ele>
        <time>2016-04-28T15:08:03Z</time>
      </trkpt>
      <trkpt lat="43.48116" lon="-0.05538">
        <ele>254</ele>
        <time>2016-04-28T15:08:24Z</time>
      </trkpt>
      <trkpt lat="43.48122" lon="-0.05543">
        <ele>253</ele>
        <time>2016-04-28T15:08:38Z</time>
      </trkpt>
      <trkpt lat="43.48124" lon="-0.05544">
        <ele>253</ele>
        <time>2016-04-28T15:08:40Z</time>
      </trkpt>
      <trkpt lat="43.48138" lon="-0.05557">
        <ele>256</ele>
        <time>2016-04-28T15:09:00Z</time>
      </trkpt>
      <trkpt lat="43.48147" lon="-0.05566">
        <ele>257</ele>
        <time>2016-04-28T15:09:12Z</time>
      </trkpt>
      <trkpt lat="43.48157" lon="-0.05577">
        <ele>260</ele>
        <time>2016-04-28T15:09:27Z</time>
      </trkpt>
      <trkpt lat="43.48169" lon="-0.05585">
        <ele>262</ele>
        <time>2016-04-28T15:09:41Z</time>
      </trkpt>
      <trkpt lat="43.4817" lon="-0.05586">
        <ele>263</ele>
        <time>2016-04-28T15:09:42Z</time>
      </trkpt>
      <trkpt lat="43.48176" lon="-0.05589">
        <ele>264</ele>
        <time>2016-04-28T15:09:49Z</time>
      </trkpt>
      <trkpt lat="43.48189" lon="-0.05591">
        <ele>266</ele>
        <time>2016-04-28T15:10:04Z</time>
      </trkpt>
      <trkpt lat="43.48203" lon="-0.05603">
        <ele>266</ele>
        <time>2016-04-28T15:10:20Z</time>
      </trkpt>
      <trkpt lat="43.48209" lon="-0.05612">
        <ele>265</ele>
        <time>2016-04-28T15:10:29Z</time>
      </trkpt>
      <trkpt lat="43.48216" lon="-0.05623">
        <ele>264</ele>
        <time>2016-04-28T15:10:42Z</time>
      </trkpt>
      <trkpt lat="43.48219" lon="-0.05626">
        <ele>264</ele>
        <time>2016-04-28T15:10:45Z</time>
      </trkpt>
      <trkpt lat="43.48224" lon="-0.05638">
        <ele>263</ele>
        <time>2016-04-28T15:10:57Z</time>
      </trkpt>
      <trkpt lat="43.48231" lon="-0.05652">
        <ele>263</ele>
        <time>2016-04-28T15:11:12Z</time>
      </trkpt>
      <trkpt lat="43.4824" lon="-0.05674">
        <ele>266</ele>
        <time>2016-04-28T15:11:31Z</time>
      </trkpt>
      <trkpt lat="43.48244" lon="-0.05689">
        <ele>269</ele>
        <time>2016-04-28T15:11:45Z</time>
      </trkpt>
      <trkpt lat="43.48246" lon="-0.05697">
        <ele>270</ele>
        <time>2016-04-28T15:11:51Z</time>
      </trkpt>
      <trkpt lat="43.48252" lon="-0.05716">
        <ele>272</ele>
        <time>2016-04-28T15:12:08Z</time>
      </trkpt>
      <trkpt lat="43.48257" lon="-0.0572">
        <ele>272</ele>
        <time>2016-04-28T15:12:14Z</time>
      </trkpt>
      <trkpt lat="43.48272" lon="-0.05726">
        <ele>276</ele>
        <time>2016-04-28T15:12:33Z</time>
      </trkpt>
      <trkpt lat="43.48283" lon="-0.0573">
        <ele>279</ele>
        <time>2016-04-28T15:12:46Z</time>
      </trkpt>
      <trkpt lat="43.48287" lon="-0.05724">
        <ele>278</ele>
        <time>2016-04-28T15:13:00Z</time>
      </trkpt>
      <trkpt lat="43.48287" lon="-0.05725">
        <ele>278</ele>
        <time>2016-04-28T15:13:16Z</time>
      </trkpt>
      <trkpt lat="43.48286" lon="-0.05728">
        <ele>279</ele>
        <time>2016-04-28T15:13:33Z</time>
      </trkpt>
      <trkpt lat="43.48285" lon="-0.05732">
        <ele>279</ele>
        <time>2016-04-28T15:13:50Z</time>
      </trkpt>
      <trkpt lat="43.48286" lon="-0.05734">
        <ele>279</ele>
        <time>2016-04-28T15:13:52Z</time>
      </trkpt>
      <trkpt lat="43.4829" lon="-0.05739">
        <ele>277</ele>
        <time>2016-04-28T15:14:05Z</time>
      </trkpt>
      <trkpt lat="43.4829" lon="-0.05738">
        <ele>277</ele>
        <time>2016-04-28T15:14:28Z</time>
      </trkpt>
      <trkpt lat="43.48292" lon="-0.05734">
        <ele>277</ele>
        <time>2016-04-28T15:15:19Z</time>
      </trkpt>
      <trkpt lat="43.48295" lon="-0.05735">
        <ele>277</ele>
        <time>2016-04-28T15:15:21Z</time>
      </trkpt>
      <trkpt lat="43.48309" lon="-0.05745">
        <ele>278</ele>
        <time>2016-04-28T15:15:36Z</time>
      </trkpt>
      <trkpt lat="43.4831" lon="-0.05746">
        <ele>279</ele>
        <time>2016-04-28T15:15:37Z</time>
      </trkpt>
      <trkpt lat="43.48317" lon="-0.05751">
        <ele>280</ele>
        <time>2016-04-28T15:15:44Z</time>
      </trkpt>
      <trkpt lat="43.4832" lon="-0.05755">
        <ele>281</ele>
        <time>2016-04-28T15:15:48Z</time>
      </trkpt>
      <trkpt lat="43.48323" lon="-0.0576">
        <ele>282</ele>
        <time>2016-04-28T15:15:53Z</time>
      </trkpt>
      <trkpt lat="43.4834" lon="-0.05781">
        <ele>281</ele>
        <time>2016-04-28T15:16:14Z</time>
      </trkpt>
      <trkpt lat="43.48353" lon="-0.05797">
        <ele>278</ele>
        <time>2016-04-28T15:16:28Z</time>
      </trkpt>
      <trkpt lat="43.48366" lon="-0.05812">
        <ele>274</ele>
        <time>2016-04-28T15:16:43Z</time>
      </trkpt>
      <trkpt lat="43.48381" lon="-0.05826">
        <ele>273</ele>
        <time>2016-04-28T15:16:59Z</time>
      </trkpt>
      <trkpt lat="43.484" lon="-0.05838">
        <ele>272</ele>
        <time>2016-04-28T15:17:18Z</time>
      </trkpt>
      <trkpt lat="43.48422" lon="-0.05852">
        <ele>270</ele>
        <time>2016-04-28T15:17:41Z</time>
      </trkpt>
      <trkpt lat="43.48448" lon="-0.05868">
        <ele>273</ele>
        <time>2016-04-28T15:18:07Z</time>
      </trkpt>
      <trkpt lat="43.48454" lon="-0.05875">
        <ele>273</ele>
        <time>2016-04-28T15:18:14Z</time>
      </trkpt>
      <trkpt lat="43.48467" lon="-0.05896">
        <ele>272</ele>
        <time>2016-04-28T15:18:35Z</time>
      </trkpt>
      <trkpt lat="43.48473" lon="-0.05906">
        <ele>272</ele>
        <time>2016-04-28T15:18:54Z</time>
      </trkpt>
      <trkpt lat="43.48493" lon="-0.05917">
        <ele>269</ele>
        <time>2016-04-28T15:19:15Z</time>
      </trkpt>
      <trkpt lat="43.48512" lon="-0.05907">
        <ele>264</ele>
        <time>2016-04-28T15:19:34Z</time>
      </trkpt>
      <trkpt lat="43.48513" lon="-0.05907">
        <ele>264</ele>
        <time>2016-04-28T15:19:58Z</time>
      </trkpt>
      <trkpt lat="43.48513" lon="-0.05907">
        <ele>264</ele>
        <time>2016-04-28T15:20:06Z</time>
      </trkpt>
    </trkseg>
  </trk>
</gpx>